sensor_id;sensor_type;location;lat;lon;timestamp;temperature;humidity
20418;DHT22;10368;51.436;6.774;2023-01-23T00:02:04;2.90;99.90
20418;DHT22;10368;51.436;6.774;2023-01-23T00:04:31;3.00;99.90
20418;DHT22;10368;51.436;6.774;2023-01-23T00:06:58;3.00;99.90
20418;DHT22;10368;51.436;6.774;2023-01-23T00:09:25;3.00;99.90
20418;DHT22;10368;51.436;6.774;2023-01-23T00:11:51;3.20;99.90
20418;DHT22;10368;51.436;6.774;2023-01-23T00:14:18;3.00;99.90
20418;DHT22;10368;51.436;6.774;2023-01-23T00:16:45;3.00;99.90
20418;DHT22;10368;51.436;6.774;2023-01-23T00:19:12;3.00;99.90
20418;DHT22;10368;51.436;6.774;2023-01-23T00:21:38;3.00;99.90
20418;DHT22;10368;51.436;6.774;2023-01-23T00:24:06;2.90;99.90
20418;DHT22;10368;51.436;6.774;2023-01-23T00:26:33;2.90;99.90
20418;DHT22;10368;51.436;6.774;2023-01-23T00:29:01;3.00;99.90
20418;DHT22;10368;51.436;6.774;2023-01-23T00:31:34;2.90;99.90
20418;DHT22;10368;51.436;6.774;2023-01-23T00:34:04;3.00;99.90
20418;DHT22;10368;51.436;6.774;2023-01-23T00:36:36;3.00;99.90
20418;DHT22;10368;51.436;6.774;2023-01-23T00:39:07;3.00;99.90
20418;DHT22;10368;51.436;6.774;2023-01-23T00:41:34;3.10;99.90
20418;DHT22;10368;51.436;6.774;2023-01-23T00:44:01;3.10;99.90
20418;DHT22;10368;51.436;6.774;2023-01-23T00:46:28;3.20;99.90
20418;DHT22;10368;51.436;6.774;2023-01-23T00:48:55;3.20;99.90
20418;DHT22;10368;51.436;6.774;2023-01-23T00:51:22;3.20;99.90
20418;DHT22;10368;51.436;6.774;2023-01-23T00:53:49;3.10;99.90
20418;DHT22;10368;51.436;6.774;2023-01-23T00:56:16;3.10;99.90
20418;DHT22;10368;51.436;6.774;2023-01-23T00:58:43;3.10;99.90
20418;DHT22;10368;51.436;6.774;2023-01-23T01:01:11;3.10;99.90
20418;DHT22;10368;51.436;6.774;2023-01-23T01:03:39;3.10;99.90
20418;DHT22;10368;51.436;6.774;2023-01-23T01:06:06;3.10;99.90
20418;DHT22;10368;51.436;6.774;2023-01-23T01:08:32;3.20;99.90
20418;DHT22;10368;51.436;6.774;2023-01-23T01:11:00;3.30;99.90
20418;DHT22;10368;51.436;6.774;2023-01-23T01:13:27;3.20;99.90
20418;DHT22;10368;51.436;6.774;2023-01-23T01:15:54;3.20;99.90
20418;DHT22;10368;51.436;6.774;2023-01-23T01:18:21;3.20;99.90
20418;DHT22;10368;51.436;6.774;2023-01-23T01:20:49;3.30;99.90
20418;DHT22;10368;51.436;6.774;2023-01-23T01:23:16;3.20;99.90
20418;DHT22;10368;51.436;6.774;2023-01-23T01:25:43;3.20;99.90
20418;DHT22;10368;51.436;6.774;2023-01-23T01:28:10;3.30;99.90
20418;DHT22;10368;51.436;6.774;2023-01-23T01:30:37;3.20;99.90
20418;DHT22;10368;51.436;6.774;2023-01-23T01:33:05;3.20;99.90
20418;DHT22;10368;51.436;6.774;2023-01-23T01:35:33;3.10;99.90
20418;DHT22;10368;51.436;6.774;2023-01-23T01:38:00;3.00;99.90
20418;DHT22;10368;51.436;6.774;2023-01-23T01:40:31;3.00;99.90
20418;DHT22;10368;51.436;6.774;2023-01-23T01:43:02;3.10;99.90
20418;DHT22;10368;51.436;6.774;2023-01-23T01:51:45;3.10;99.90
20418;DHT22;10368;51.436;6.774;2023-01-23T01:54:23;3.00;99.90
20418;DHT22;10368;51.436;6.774;2023-01-23T01:59:37;3.10;99.90
20418;DHT22;10368;51.436;6.774;2023-01-23T02:02:15;3.20;99.90
20418;DHT22;10368;51.436;6.774;2023-01-23T02:04:48;3.10;99.90
20418;DHT22;10368;51.436;6.774;2023-01-23T02:08:08;3.10;99.90
20418;DHT22;10368;51.436;6.774;2023-01-23T02:10:14;3.10;99.90
20418;DHT22;10368;51.436;6.774;2023-01-23T02:12:50;3.10;99.90
20418;DHT22;10368;51.436;6.774;2023-01-23T02:15:19;3.00;99.90
20418;DHT22;10368;51.436;6.774;2023-01-23T02:17:48;3.20;99.90
20418;DHT22;10368;51.436;6.774;2023-01-23T02:20:20;3.20;99.90
20418;DHT22;10368;51.436;6.774;2023-01-23T02:23:07;3.20;99.90
20418;DHT22;10368;51.436;6.774;2023-01-23T02:28:11;3.10;99.90
20418;DHT22;10368;51.436;6.774;2023-01-23T02:30:39;3.20;99.90
20418;DHT22;10368;51.436;6.774;2023-01-23T02:35:47;3.20;99.90
20418;DHT22;10368;51.436;6.774;2023-01-23T02:38:14;3.20;99.90
20418;DHT22;10368;51.436;6.774;2023-01-23T02:40:42;3.10;99.90
20418;DHT22;10368;51.436;6.774;2023-01-23T02:43:13;3.10;99.90
20418;DHT22;10368;51.436;6.774;2023-01-23T02:45:41;3.20;99.90
20418;DHT22;10368;51.436;6.774;2023-01-23T02:48:08;3.20;99.90
20418;DHT22;10368;51.436;6.774;2023-01-23T02:50:35;3.10;99.90
20418;DHT22;10368;51.436;6.774;2023-01-23T02:53:02;3.20;99.90
20418;DHT22;10368;51.436;6.774;2023-01-23T02:55:29;3.10;99.90
20418;DHT22;10368;51.436;6.774;2023-01-23T02:57:57;3.20;99.90
20418;DHT22;10368;51.436;6.774;2023-01-23T03:00:45;3.10;99.90
20418;DHT22;10368;51.436;6.774;2023-01-23T03:03:13;3.10;99.90
20418;DHT22;10368;51.436;6.774;2023-01-23T03:05:41;3.10;99.90
20418;DHT22;10368;51.436;6.774;2023-01-23T03:08:08;3.00;99.90
20418;DHT22;10368;51.436;6.774;2023-01-23T03:10:35;2.90;99.90
20418;DHT22;10368;51.436;6.774;2023-01-23T03:13:01;2.90;99.90
20418;DHT22;10368;51.436;6.774;2023-01-23T03:15:30;2.90;99.90
20418;DHT22;10368;51.436;6.774;2023-01-23T03:17:57;2.90;99.90
20418;DHT22;10368;51.436;6.774;2023-01-23T03:20:24;2.90;99.90
20418;DHT22;10368;51.436;6.774;2023-01-23T03:22:53;3.00;99.90
20418;DHT22;10368;51.436;6.774;2023-01-23T03:25:19;3.00;99.90
20418;DHT22;10368;51.436;6.774;2023-01-23T03:27:47;3.00;99.90
20418;DHT22;10368;51.436;6.774;2023-01-23T03:30:15;3.10;99.90
20418;DHT22;10368;51.436;6.774;2023-01-23T03:32:43;3.00;99.90
20418;DHT22;10368;51.436;6.774;2023-01-23T03:35:11;3.10;99.90
20418;DHT22;10368;51.436;6.774;2023-01-23T03:37:42;3.10;99.90
20418;DHT22;10368;51.436;6.774;2023-01-23T03:40:23;3.10;99.90
20418;DHT22;10368;51.436;6.774;2023-01-23T03:43:08;3.00;99.90
20418;DHT22;10368;51.436;6.774;2023-01-23T03:45:35;3.00;99.90
20418;DHT22;10368;51.436;6.774;2023-01-23T03:48:02;3.10;99.90
20418;DHT22;10368;51.436;6.774;2023-01-23T03:50:29;3.20;99.90
20418;DHT22;10368;51.436;6.774;2023-01-23T03:52:56;3.20;99.90
20418;DHT22;10368;51.436;6.774;2023-01-23T03:55:23;3.10;99.90
20418;DHT22;10368;51.436;6.774;2023-01-23T03:57:49;3.30;99.90
20418;DHT22;10368;51.436;6.774;2023-01-23T04:00:16;3.20;99.90
20418;DHT22;10368;51.436;6.774;2023-01-23T04:02:44;3.20;99.90
20418;DHT22;10368;51.436;6.774;2023-01-23T04:05:11;3.30;99.90
20418;DHT22;10368;51.436;6.774;2023-01-23T04:07:37;3.30;99.90
20418;DHT22;10368;51.436;6.774;2023-01-23T04:10:04;3.20;99.90
20418;DHT22;10368;51.436;6.774;2023-01-23T04:12:31;3.20;99.90
20418;DHT22;10368;51.436;6.774;2023-01-23T04:14:58;3.30;99.90
20418;DHT22;10368;51.436;6.774;2023-01-23T04:17:24;3.30;99.90
20418;DHT22;10368;51.436;6.774;2023-01-23T04:19:51;3.20;99.90
20418;DHT22;10368;51.436;6.774;2023-01-23T04:22:18;3.30;99.90
20418;DHT22;10368;51.436;6.774;2023-01-23T04:24:45;3.20;99.90
20418;DHT22;10368;51.436;6.774;2023-01-23T04:27:12;3.20;99.90
20418;DHT22;10368;51.436;6.774;2023-01-23T04:29:38;3.30;99.90
20418;DHT22;10368;51.436;6.774;2023-01-23T04:32:06;3.30;99.90
20418;DHT22;10368;51.436;6.774;2023-01-23T04:34:35;3.20;99.90
20418;DHT22;10368;51.436;6.774;2023-01-23T04:37:02;3.20;99.90
20418;DHT22;10368;51.436;6.774;2023-01-23T04:39:30;3.20;99.90
20418;DHT22;10368;51.436;6.774;2023-01-23T04:41:57;3.20;99.90
20418;DHT22;10368;51.436;6.774;2023-01-23T04:44:24;3.20;99.90
20418;DHT22;10368;51.436;6.774;2023-01-23T04:46:52;3.20;99.90
20418;DHT22;10368;51.436;6.774;2023-01-23T04:49:21;3.30;99.90
20418;DHT22;10368;51.436;6.774;2023-01-23T04:51:49;3.30;99.90
20418;DHT22;10368;51.436;6.774;2023-01-23T04:54:17;3.30;99.90
20418;DHT22;10368;51.436;6.774;2023-01-23T04:56:44;3.20;99.90
20418;DHT22;10368;51.436;6.774;2023-01-23T04:59:12;3.20;99.90
20418;DHT22;10368;51.436;6.774;2023-01-23T05:01:39;3.10;99.90
20418;DHT22;10368;51.436;6.774;2023-01-23T05:04:06;3.30;99.90
20418;DHT22;10368;51.436;6.774;2023-01-23T05:06:32;3.30;99.90
20418;DHT22;10368;51.436;6.774;2023-01-23T05:08:59;3.10;99.90
20418;DHT22;10368;51.436;6.774;2023-01-23T05:11:26;3.10;99.90
20418;DHT22;10368;51.436;6.774;2023-01-23T05:13:56;3.20;99.90
20418;DHT22;10368;51.436;6.774;2023-01-23T05:16:23;3.10;99.90
20418;DHT22;10368;51.436;6.774;2023-01-23T05:18:49;3.20;99.90
20418;DHT22;10368;51.436;6.774;2023-01-23T05:21:16;3.30;99.90
20418;DHT22;10368;51.436;6.774;2023-01-23T05:23:43;3.20;99.90
20418;DHT22;10368;51.436;6.774;2023-01-23T05:26:10;3.20;99.90
20418;DHT22;10368;51.436;6.774;2023-01-23T05:28:36;3.20;99.90
20418;DHT22;10368;51.436;6.774;2023-01-23T05:31:03;3.30;99.90
20418;DHT22;10368;51.436;6.774;2023-01-23T05:33:30;3.10;99.90
20418;DHT22;10368;51.436;6.774;2023-01-23T05:35:58;3.30;99.90
20418;DHT22;10368;51.436;6.774;2023-01-23T05:38:26;3.30;99.90
20418;DHT22;10368;51.436;6.774;2023-01-23T05:40:52;3.30;99.90
20418;DHT22;10368;51.436;6.774;2023-01-23T05:43:19;3.30;99.90
20418;DHT22;10368;51.436;6.774;2023-01-23T05:45:46;3.20;99.90
20418;DHT22;10368;51.436;6.774;2023-01-23T05:48:13;3.20;99.90
20418;DHT22;10368;51.436;6.774;2023-01-23T05:50:40;3.20;99.90
20418;DHT22;10368;51.436;6.774;2023-01-23T05:53:07;3.20;99.90
20418;DHT22;10368;51.436;6.774;2023-01-23T05:55:36;3.20;99.90
20418;DHT22;10368;51.436;6.774;2023-01-23T05:58:03;3.20;99.90
20418;DHT22;10368;51.436;6.774;2023-01-23T06:00:30;3.20;99.90
20418;DHT22;10368;51.436;6.774;2023-01-23T06:02:57;3.20;99.90
20418;DHT22;10368;51.436;6.774;2023-01-23T06:05:24;3.20;99.90
20418;DHT22;10368;51.436;6.774;2023-01-23T06:07:51;3.20;99.90
20418;DHT22;10368;51.436;6.774;2023-01-23T06:10:18;3.30;99.90
20418;DHT22;10368;51.436;6.774;2023-01-23T06:12:45;3.40;99.90
20418;DHT22;10368;51.436;6.774;2023-01-23T06:15:11;3.30;99.90
20418;DHT22;10368;51.436;6.774;2023-01-23T06:17:38;3.20;99.90
20418;DHT22;10368;51.436;6.774;2023-01-23T06:20:06;3.20;99.90
20418;DHT22;10368;51.436;6.774;2023-01-23T06:22:33;3.20;99.90
20418;DHT22;10368;51.436;6.774;2023-01-23T06:24:59;3.20;99.90
20418;DHT22;10368;51.436;6.774;2023-01-23T06:27:26;3.20;99.90
20418;DHT22;10368;51.436;6.774;2023-01-23T06:29:53;3.20;99.90
20418;DHT22;10368;51.436;6.774;2023-01-23T06:32:20;3.20;99.90
20418;DHT22;10368;51.436;6.774;2023-01-23T06:34:49;3.10;99.90
20418;DHT22;10368;51.436;6.774;2023-01-23T06:37:15;3.10;99.90
20418;DHT22;10368;51.436;6.774;2023-01-23T06:39:42;3.20;99.90
20418;DHT22;10368;51.436;6.774;2023-01-23T06:42:09;3.20;99.90
20418;DHT22;10368;51.436;6.774;2023-01-23T06:44:36;3.20;99.90
20418;DHT22;10368;51.436;6.774;2023-01-23T06:47:03;3.20;99.90
20418;DHT22;10368;51.436;6.774;2023-01-23T06:49:32;3.20;99.90
20418;DHT22;10368;51.436;6.774;2023-01-23T06:51:59;3.20;99.90
20418;DHT22;10368;51.436;6.774;2023-01-23T06:54:26;3.20;99.90
20418;DHT22;10368;51.436;6.774;2023-01-23T06:56:52;3.20;99.90
20418;DHT22;10368;51.436;6.774;2023-01-23T06:59:19;3.20;99.90
20418;DHT22;10368;51.436;6.774;2023-01-23T07:01:46;3.20;99.90
20418;DHT22;10368;51.436;6.774;2023-01-23T07:04:13;3.20;99.90
20418;DHT22;10368;51.436;6.774;2023-01-23T07:06:40;3.30;99.90
20418;DHT22;10368;51.436;6.774;2023-01-23T07:09:07;3.40;99.90
20418;DHT22;10368;51.436;6.774;2023-01-23T07:11:34;3.30;99.90
20418;DHT22;10368;51.436;6.774;2023-01-23T07:14:03;3.30;99.90
20418;DHT22;10368;51.436;6.774;2023-01-23T07:16:30;3.40;99.90
20418;DHT22;10368;51.436;6.774;2023-01-23T07:18:58;3.30;99.90
20418;DHT22;10368;51.436;6.774;2023-01-23T07:21:25;3.30;99.90
20418;DHT22;10368;51.436;6.774;2023-01-23T07:23:51;3.30;99.90
20418;DHT22;10368;51.436;6.774;2023-01-23T07:26:18;3.30;99.90
20418;DHT22;10368;51.436;6.774;2023-01-23T07:28:45;3.20;99.90
20418;DHT22;10368;51.436;6.774;2023-01-23T07:31:12;3.40;99.90
20418;DHT22;10368;51.436;6.774;2023-01-23T07:33:39;3.40;99.90
20418;DHT22;10368;51.436;6.774;2023-01-23T07:36:06;3.30;99.90
20418;DHT22;10368;51.436;6.774;2023-01-23T07:38:33;3.40;99.90
20418;DHT22;10368;51.436;6.774;2023-01-23T07:41:00;3.50;99.90
20418;DHT22;10368;51.436;6.774;2023-01-23T07:43:27;3.40;99.90
20418;DHT22;10368;51.436;6.774;2023-01-23T07:45:57;3.40;99.90
20418;DHT22;10368;51.436;6.774;2023-01-23T07:48:25;3.40;99.90
20418;DHT22;10368;51.436;6.774;2023-01-23T07:50:52;3.30;99.90
20418;DHT22;10368;51.436;6.774;2023-01-23T07:53:18;3.30;99.90
20418;DHT22;10368;51.436;6.774;2023-01-23T07:55:45;3.30;99.90
20418;DHT22;10368;51.436;6.774;2023-01-23T07:58:12;3.40;99.90
20418;DHT22;10368;51.436;6.774;2023-01-23T08:00:39;3.50;99.90
20418;DHT22;10368;51.436;6.774;2023-01-23T08:03:07;3.60;99.90
20418;DHT22;10368;51.436;6.774;2023-01-23T08:05:34;3.50;99.90
20418;DHT22;10368;51.436;6.774;2023-01-23T08:08:00;3.40;99.90
20418;DHT22;10368;51.436;6.774;2023-01-23T08:10:39;3.40;99.90
20418;DHT22;10368;51.436;6.774;2023-01-23T08:13:06;3.50;99.90
20418;DHT22;10368;51.436;6.774;2023-01-23T08:15:33;3.40;99.90
20418;DHT22;10368;51.436;6.774;2023-01-23T08:18:00;3.50;99.90
20418;DHT22;10368;51.436;6.774;2023-01-23T08:20:26;3.50;99.90
20418;DHT22;10368;51.436;6.774;2023-01-23T08:22:53;3.50;99.90
20418;DHT22;10368;51.436;6.774;2023-01-23T08:25:20;3.50;99.90
20418;DHT22;10368;51.436;6.774;2023-01-23T08:27:47;3.60;99.90
20418;DHT22;10368;51.436;6.774;2023-01-23T08:30:13;3.60;99.90
20418;DHT22;10368;51.436;6.774;2023-01-23T08:32:40;3.50;99.90
20418;DHT22;10368;51.436;6.774;2023-01-23T08:35:08;3.50;99.90
20418;DHT22;10368;51.436;6.774;2023-01-23T08:37:36;3.50;99.90
20418;DHT22;10368;51.436;6.774;2023-01-23T08:40:03;3.50;99.90
20418;DHT22;10368;51.436;6.774;2023-01-23T08:42:30;3.50;99.90
20418;DHT22;10368;51.436;6.774;2023-01-23T08:44:57;3.60;99.90
20418;DHT22;10368;51.436;6.774;2023-01-23T08:47:24;3.70;99.90
20418;DHT22;10368;51.436;6.774;2023-01-23T08:49:51;3.60;99.90
20418;DHT22;10368;51.436;6.774;2023-01-23T08:52:17;3.70;99.90
20418;DHT22;10368;51.436;6.774;2023-01-23T08:54:52;3.70;99.90
20418;DHT22;10368;51.436;6.774;2023-01-23T08:57:19;3.70;99.90
20418;DHT22;10368;51.436;6.774;2023-01-23T08:59:46;3.60;99.90
20418;DHT22;10368;51.436;6.774;2023-01-23T09:02:13;3.60;99.90
20418;DHT22;10368;51.436;6.774;2023-01-23T09:04:39;3.70;99.90
20418;DHT22;10368;51.436;6.774;2023-01-23T09:07:06;3.70;99.90
20418;DHT22;10368;51.436;6.774;2023-01-23T09:09:33;3.70;99.90
20418;DHT22;10368;51.436;6.774;2023-01-23T09:12:00;3.70;99.90
20418;DHT22;10368;51.436;6.774;2023-01-23T09:14:27;3.70;99.90
20418;DHT22;10368;51.436;6.774;2023-01-23T09:16:54;3.70;99.90
20418;DHT22;10368;51.436;6.774;2023-01-23T09:19:21;3.70;99.90
20418;DHT22;10368;51.436;6.774;2023-01-23T09:21:47;3.70;99.90
20418;DHT22;10368;51.436;6.774;2023-01-23T09:24:15;3.90;99.90
20418;DHT22;10368;51.436;6.774;2023-01-23T09:26:42;3.80;99.90
20418;DHT22;10368;51.436;6.774;2023-01-23T09:29:09;3.80;99.90
20418;DHT22;10368;51.436;6.774;2023-01-23T09:31:35;3.80;99.90
20418;DHT22;10368;51.436;6.774;2023-01-23T09:34:03;4.00;99.90
20418;DHT22;10368;51.436;6.774;2023-01-23T09:36:29;3.90;99.90
20418;DHT22;10368;51.436;6.774;2023-01-23T09:39:08;3.90;99.90
20418;DHT22;10368;51.436;6.774;2023-01-23T09:41:36;3.90;99.90
20418;DHT22;10368;51.436;6.774;2023-01-23T09:44:10;3.80;99.90
20418;DHT22;10368;51.436;6.774;2023-01-23T09:46:40;3.80;99.90
20418;DHT22;10368;51.436;6.774;2023-01-23T09:49:13;4.00;99.90
20418;DHT22;10368;51.436;6.774;2023-01-23T09:56:50;3.90;99.90
20418;DHT22;10368;51.436;6.774;2023-01-23T09:59:34;3.90;99.90
20418;DHT22;10368;51.436;6.774;2023-01-23T10:02:21;3.90;99.90
20418;DHT22;10368;51.436;6.774;2023-01-23T10:04:52;4.00;99.90
20418;DHT22;10368;51.436;6.774;2023-01-23T10:13:55;4.10;99.90
20418;DHT22;10368;51.436;6.774;2023-01-23T10:19:06;4.00;99.90
20418;DHT22;10368;51.436;6.774;2023-01-23T10:29:57;4.20;99.90
20418;DHT22;10368;51.436;6.774;2023-01-23T10:32:29;4.20;99.90
20418;DHT22;10368;51.436;6.774;2023-01-23T10:35:09;4.20;99.90
20418;DHT22;10368;51.436;6.774;2023-01-23T10:37:47;4.20;99.90
20418;DHT22;10368;51.436;6.774;2023-01-23T10:40:18;4.10;99.90
20418;DHT22;10368;51.436;6.774;2023-01-23T10:43:19;4.10;99.90
20418;DHT22;10368;51.436;6.774;2023-01-23T10:45:47;4.20;99.90
20418;DHT22;10368;51.436;6.774;2023-01-23T10:48:40;4.40;99.90
20418;DHT22;10368;51.436;6.774;2023-01-23T10:54:03;4.30;99.90
20418;DHT22;10368;51.436;6.774;2023-01-23T10:56:35;4.20;99.90
20418;DHT22;10368;51.436;6.774;2023-01-23T10:59:04;4.20;99.90
20418;DHT22;10368;51.436;6.774;2023-01-23T11:01:33;4.30;99.90
20418;DHT22;10368;51.436;6.774;2023-01-23T11:04:10;4.30;99.90
20418;DHT22;10368;51.436;6.774;2023-01-23T11:06:41;4.30;99.90
20418;DHT22;10368;51.436;6.774;2023-01-23T11:09:19;4.40;99.90
20418;DHT22;10368;51.436;6.774;2023-01-23T11:12:12;4.40;99.90
20418;DHT22;10368;51.436;6.774;2023-01-23T11:14:39;4.40;99.90
20418;DHT22;10368;51.436;6.774;2023-01-23T11:17:23;4.50;99.90
20418;DHT22;10368;51.436;6.774;2023-01-23T11:19:58;4.40;99.90
20418;DHT22;10368;51.436;6.774;2023-01-23T11:22:31;4.40;99.90
20418;DHT22;10368;51.436;6.774;2023-01-23T11:28:22;4.40;99.90
20418;DHT22;10368;51.436;6.774;2023-01-23T11:34:11;4.40;99.90
20418;DHT22;10368;51.436;6.774;2023-01-23T11:36:47;4.40;99.90
20418;DHT22;10368;51.436;6.774;2023-01-23T11:41:59;4.50;99.90
20418;DHT22;10368;51.436;6.774;2023-01-23T11:44:27;4.40;99.90
20418;DHT22;10368;51.436;6.774;2023-01-23T11:49:53;4.40;99.90
20418;DHT22;10368;51.436;6.774;2023-01-23T11:52:38;4.50;99.90
20418;DHT22;10368;51.436;6.774;2023-01-23T12:01:14;4.50;99.90
20418;DHT22;10368;51.436;6.774;2023-01-23T12:09:20;4.60;99.90
20418;DHT22;10368;51.436;6.774;2023-01-23T12:14:41;4.70;99.90
20418;DHT22;10368;51.436;6.774;2023-01-23T12:25:39;4.50;99.90
20418;DHT22;10368;51.436;6.774;2023-01-23T12:42:16;4.60;99.90
20418;DHT22;10368;51.436;6.774;2023-01-23T12:52:54;4.70;99.90
20418;DHT22;10368;51.436;6.774;2023-01-23T12:57:57;4.80;99.90
20418;DHT22;10368;51.436;6.774;2023-01-23T13:01:04;4.70;99.90
20418;DHT22;10368;51.436;6.774;2023-01-23T13:09:45;4.60;99.90
20418;DHT22;10368;51.436;6.774;2023-01-23T13:17:50;4.80;99.90
20418;DHT22;10368;51.436;6.774;2023-01-23T13:25:45;4.70;99.90
20418;DHT22;10368;51.436;6.774;2023-01-23T13:28:39;4.70;99.90
20418;DHT22;10368;51.436;6.774;2023-01-23T13:31:37;4.80;99.90
20418;DHT22;10368;51.436;6.774;2023-01-23T13:36:52;4.70;99.90
20418;DHT22;10368;51.436;6.774;2023-01-23T13:39:28;4.60;99.90
20418;DHT22;10368;51.436;6.774;2023-01-23T13:48:09;4.70;99.90
20418;DHT22;10368;51.436;6.774;2023-01-23T13:51:16;4.60;99.90
20418;DHT22;10368;51.436;6.774;2023-01-23T13:53:58;4.60;99.90
20418;DHT22;10368;51.436;6.774;2023-01-23T13:56:57;4.70;99.90
20418;DHT22;10368;51.436;6.774;2023-01-23T13:59:41;4.70;99.90
20418;DHT22;10368;51.436;6.774;2023-01-23T14:02:38;4.70;99.90
20418;DHT22;10368;51.436;6.774;2023-01-23T14:05:40;4.60;99.90
20418;DHT22;10368;51.436;6.774;2023-01-23T14:08:22;4.70;99.90
20418;DHT22;10368;51.436;6.774;2023-01-23T14:11:13;4.80;99.90
20418;DHT22;10368;51.436;6.774;2023-01-23T14:13:55;4.80;99.90
20418;DHT22;10368;51.436;6.774;2023-01-23T14:16:55;4.80;99.90
20418;DHT22;10368;51.436;6.774;2023-01-23T14:20:10;4.70;99.90
20418;DHT22;10368;51.436;6.774;2023-01-23T14:22:31;4.60;99.90
20418;DHT22;10368;51.436;6.774;2023-01-23T14:24:58;4.70;99.90
20418;DHT22;10368;51.436;6.774;2023-01-23T14:27:33;4.70;99.90
20418;DHT22;10368;51.436;6.774;2023-01-23T14:30:21;4.80;99.90
20418;DHT22;10368;51.436;6.774;2023-01-23T14:32:50;4.70;99.90
20418;DHT22;10368;51.436;6.774;2023-01-23T14:35:28;4.60;99.90
20418;DHT22;10368;51.436;6.774;2023-01-23T14:38:04;4.70;99.90
20418;DHT22;10368;51.436;6.774;2023-01-23T14:40:32;4.70;99.90
20418;DHT22;10368;51.436;6.774;2023-01-23T14:43:21;4.60;99.90
20418;DHT22;10368;51.436;6.774;2023-01-23T14:46:01;4.60;99.90
20418;DHT22;10368;51.436;6.774;2023-01-23T14:48:32;4.70;99.90
20418;DHT22;10368;51.436;6.774;2023-01-23T14:51:03;4.60;99.90
20418;DHT22;10368;51.436;6.774;2023-01-23T14:53:31;4.60;99.90
20418;DHT22;10368;51.436;6.774;2023-01-23T14:55:58;4.60;99.90
20418;DHT22;10368;51.436;6.774;2023-01-23T14:58:27;4.60;99.90
20418;DHT22;10368;51.436;6.774;2023-01-23T15:00:56;4.60;99.90
20418;DHT22;10368;51.436;6.774;2023-01-23T15:03:40;4.60;99.90
20418;DHT22;10368;51.436;6.774;2023-01-23T15:06:19;4.60;99.90
20418;DHT22;10368;51.436;6.774;2023-01-23T15:08:47;4.50;99.90
20418;DHT22;10368;51.436;6.774;2023-01-23T15:11:23;4.50;99.90
20418;DHT22;10368;51.436;6.774;2023-01-23T15:13:52;4.60;99.90
20418;DHT22;10368;51.436;6.774;2023-01-23T15:16:27;4.60;99.90
20418;DHT22;10368;51.436;6.774;2023-01-23T15:18:59;4.50;99.90
20418;DHT22;10368;51.436;6.774;2023-01-23T15:21:34;4.50;99.90
20418;DHT22;10368;51.436;6.774;2023-01-23T15:27:01;4.50;99.90
20418;DHT22;10368;51.436;6.774;2023-01-23T15:29:29;4.40;99.90
20418;DHT22;10368;51.436;6.774;2023-01-23T15:31:58;4.50;99.90
20418;DHT22;10368;51.436;6.774;2023-01-23T15:34:29;4.40;99.90
20418;DHT22;10368;51.436;6.774;2023-01-23T15:37:22;4.30;99.90
20418;DHT22;10368;51.436;6.774;2023-01-23T15:39:53;4.40;99.90
20418;DHT22;10368;51.436;6.774;2023-01-23T15:42:28;4.30;99.90
20418;DHT22;10368;51.436;6.774;2023-01-23T15:44:55;4.50;99.90
20418;DHT22;10368;51.436;6.774;2023-01-23T15:47:30;4.50;99.90
20418;DHT22;10368;51.436;6.774;2023-01-23T15:49:58;4.40;99.90
20418;DHT22;10368;51.436;6.774;2023-01-23T15:55:04;4.30;99.90
20418;DHT22;10368;51.436;6.774;2023-01-23T15:57:31;4.30;99.90
20418;DHT22;10368;51.436;6.774;2023-01-23T15:59:58;4.40;99.90
20418;DHT22;10368;51.436;6.774;2023-01-23T16:02:25;4.40;99.90
20418;DHT22;10368;51.436;6.774;2023-01-23T16:04:59;4.50;99.90
20418;DHT22;10368;51.436;6.774;2023-01-23T16:07:35;4.40;99.90
20418;DHT22;10368;51.436;6.774;2023-01-23T16:10:18;4.30;99.90
20418;DHT22;10368;51.436;6.774;2023-01-23T16:12:47;4.40;99.90
20418;DHT22;10368;51.436;6.774;2023-01-23T16:15:20;4.30;99.90
20418;DHT22;10368;51.436;6.774;2023-01-23T16:17:47;4.30;99.90
20418;DHT22;10368;51.436;6.774;2023-01-23T16:22:42;4.30;99.90
20418;DHT22;10368;51.436;6.774;2023-01-23T16:25:31;4.40;99.90
20418;DHT22;10368;51.436;6.774;2023-01-23T16:28:15;4.40;99.90
20418;DHT22;10368;51.436;6.774;2023-01-23T16:30:42;4.40;99.90
20418;DHT22;10368;51.436;6.774;2023-01-23T16:33:09;4.30;99.90
20418;DHT22;10368;51.436;6.774;2023-01-23T16:35:36;4.20;99.90
20418;DHT22;10368;51.436;6.774;2023-01-23T16:38:04;4.30;99.90
20418;DHT22;10368;51.436;6.774;2023-01-23T16:40:31;4.30;99.90
20418;DHT22;10368;51.436;6.774;2023-01-23T16:42:59;4.20;99.90
20418;DHT22;10368;51.436;6.774;2023-01-23T16:45:30;4.30;99.90
20418;DHT22;10368;51.436;6.774;2023-01-23T16:47:57;4.20;99.90
20418;DHT22;10368;51.436;6.774;2023-01-23T16:50:31;4.30;99.90
20418;DHT22;10368;51.436;6.774;2023-01-23T16:53:11;4.20;99.90
20418;DHT22;10368;51.436;6.774;2023-01-23T16:55:43;4.30;99.90
20418;DHT22;10368;51.436;6.774;2023-01-23T16:58:19;4.40;99.90
20418;DHT22;10368;51.436;6.774;2023-01-23T17:00:47;4.30;99.90
20418;DHT22;10368;51.436;6.774;2023-01-23T17:03:21;4.30;99.90
20418;DHT22;10368;51.436;6.774;2023-01-23T17:05:50;4.20;99.90
20418;DHT22;10368;51.436;6.774;2023-01-23T17:10:45;4.20;99.90
20418;DHT22;10368;51.436;6.774;2023-01-23T17:13:15;4.20;99.90
20418;DHT22;10368;51.436;6.774;2023-01-23T17:15:44;4.20;99.90
20418;DHT22;10368;51.436;6.774;2023-01-23T17:18:22;4.20;99.90
20418;DHT22;10368;51.436;6.774;2023-01-23T17:20:51;4.10;99.90
20418;DHT22;10368;51.436;6.774;2023-01-23T17:23:21;4.20;99.90
20418;DHT22;10368;51.436;6.774;2023-01-23T17:25:49;4.20;99.90
20418;DHT22;10368;51.436;6.774;2023-01-23T17:28:26;4.20;99.90
20418;DHT22;10368;51.436;6.774;2023-01-23T17:30:53;4.10;99.90
20418;DHT22;10368;51.436;6.774;2023-01-23T17:33:26;4.10;99.90
20418;DHT22;10368;51.436;6.774;2023-01-23T17:35:55;4.10;99.90
20418;DHT22;10368;51.436;6.774;2023-01-23T17:38:24;4.10;99.90
20418;DHT22;10368;51.436;6.774;2023-01-23T17:40:52;4.20;99.90
20418;DHT22;10368;51.436;6.774;2023-01-23T17:43:20;4.20;99.90
20418;DHT22;10368;51.436;6.774;2023-01-23T17:45:49;4.10;99.90
20418;DHT22;10368;51.436;6.774;2023-01-23T17:48:28;4.10;99.90
20418;DHT22;10368;51.436;6.774;2023-01-23T17:50:56;4.10;99.90
20418;DHT22;10368;51.436;6.774;2023-01-23T17:53:23;4.10;99.90
20418;DHT22;10368;51.436;6.774;2023-01-23T17:55:50;4.10;99.90
20418;DHT22;10368;51.436;6.774;2023-01-23T17:58:19;4.00;99.90
20418;DHT22;10368;51.436;6.774;2023-01-23T18:00:49;4.10;99.90
20418;DHT22;10368;51.436;6.774;2023-01-23T18:03:21;4.00;99.90
20418;DHT22;10368;51.436;6.774;2023-01-23T18:05:48;4.10;99.90
20418;DHT22;10368;51.436;6.774;2023-01-23T18:08:20;4.10;99.90
20418;DHT22;10368;51.436;6.774;2023-01-23T18:10:52;4.10;99.90
20418;DHT22;10368;51.436;6.774;2023-01-23T18:13:30;4.10;99.90
20418;DHT22;10368;51.436;6.774;2023-01-23T18:16:09;4.10;99.90
20418;DHT22;10368;51.436;6.774;2023-01-23T18:18:38;4.20;99.90
20418;DHT22;10368;51.436;6.774;2023-01-23T18:21:12;4.10;99.90
20418;DHT22;10368;51.436;6.774;2023-01-23T18:23:40;4.10;99.90